createdAt,value
2023-04-21T00:02:24.386Z,95812.47
2023-04-21T00:04:52.076Z,95804.78
2023-04-21T00:07:20.110Z,95804.22
2023-04-21T00:09:46.795Z,95794.88
2023-04-21T00:12:13.489Z,95789.66
2023-04-21T00:14:40.199Z,95794.09
2023-04-21T00:17:06.891Z,95800.22
2023-04-21T00:19:35.324Z,95803.88
2023-04-21T00:22:02.015Z,95800.88
2023-04-21T00:24:28.775Z,95800.69
2023-04-21T00:26:55.549Z,95797.78
2023-04-21T00:29:22.581Z,95803.03
2023-04-21T00:31:50.161Z,95794.88
2023-04-21T00:34:16.963Z,95792.25
2023-04-21T00:36:45.692Z,95789.66
2023-04-21T00:39:12.489Z,95791.13
2023-04-21T00:41:40.671Z,95796.06
2023-04-21T00:44:08.878Z,95792.19
2023-04-21T00:46:36.713Z,95789.13
2023-04-21T00:49:07.119Z,95800.84
2023-04-21T00:51:35.364Z,95798.84
2023-04-21T00:54:06.700Z,95798.47
2023-04-21T00:56:35.602Z,95789.66
2023-04-21T00:59:02.312Z,95789.66
2023-04-21T01:01:31.085Z,95792.38
2023-04-21T01:04:01.068Z,95795.72
2023-04-21T01:06:34.332Z,95792.06
2023-04-21T01:09:01.577Z,95797.13
2023-04-21T01:11:28.318Z,95794.06
2023-04-21T01:13:55.747Z,95785.41
2023-04-21T01:16:24.122Z,95791.00
2023-04-21T01:18:53.939Z,95790.47
2023-04-21T01:21:21.887Z,95794.97
2023-04-21T01:23:48.858Z,95791.81
2023-04-21T01:26:19.254Z,95790.09
2023-04-21T01:28:47.839Z,95792.59
2023-04-21T01:31:16.502Z,95790.34
2023-04-21T01:33:43.474Z,95787.94
2023-04-21T01:36:10.643Z,95782.00
2023-04-21T01:38:41.296Z,95782.91
2023-04-21T01:41:08.782Z,95781.16
2023-04-21T01:43:37.120Z,95772.38
2023-04-21T01:46:05.504Z,95771.97
2023-04-21T01:48:32.368Z,95773.28
2023-04-21T01:50:59.137Z,95780.41
2023-04-21T01:53:26.883Z,95781.38
2023-04-21T01:55:53.641Z,95775.31
2023-04-21T01:58:21.335Z,95772.56
2023-04-21T02:00:48.116Z,95774.63
2023-04-21T02:03:14.858Z,95772.50
2023-04-21T02:05:41.592Z,95763.75
2023-04-21T02:08:08.328Z,95761.19
2023-04-21T02:10:35.194Z,95773.22
2023-04-21T02:13:01.855Z,95763.63
2023-04-21T02:15:29.621Z,95769.41
2023-04-21T02:17:56.572Z,95769.56
2023-04-21T02:20:25.469Z,95771.63
2023-04-21T02:22:52.113Z,95768.06
2023-04-21T02:25:20.118Z,95777.50
2023-04-21T02:27:46.746Z,95767.13
2023-04-21T02:30:13.572Z,95773.88
2023-04-21T02:32:42.638Z,95776.00
2023-04-21T02:35:10.984Z,95769.09
2023-04-21T02:37:38.066Z,95759.66
2023-04-21T02:40:06.591Z,95758.47
2023-04-21T02:42:34.874Z,95767.88
2023-04-21T02:45:01.708Z,95763.72
2023-04-21T02:47:28.684Z,95772.38
2023-04-21T02:49:57.133Z,95766.78
2023-04-21T02:52:24.874Z,95766.03
2023-04-21T02:54:51.648Z,95760.44
2023-04-21T02:57:18.321Z,95764.13
2023-04-21T02:59:44.951Z,95762.50
2023-04-21T03:02:11.900Z,95751.81
2023-04-21T03:04:39.339Z,95758.59
2023-04-21T03:07:06.114Z,95757.31
2023-04-21T03:09:32.786Z,95758.75
2023-04-21T03:11:59.848Z,95751.56
2023-04-21T03:14:26.579Z,95744.88
2023-04-21T03:16:53.374Z,95753.03
2023-04-21T03:19:20.386Z,95753.03
2023-04-21T03:21:47.180Z,95756.91
2023-04-21T03:24:14.016Z,95762.13
2023-04-21T03:26:41.280Z,95756.03
2023-04-21T03:29:08.079Z,95751.22
2023-04-21T03:31:34.950Z,95755.59
2023-04-21T03:34:01.861Z,95754.78
2023-04-21T03:36:28.890Z,95762.28
2023-04-21T03:38:58.969Z,95762.94
2023-04-21T03:41:27.819Z,95762.94
2023-04-21T03:43:54.481Z,95756.03
2023-04-21T03:46:22.172Z,95758.00
2023-04-21T03:48:49.031Z,95763.28
2023-04-21T03:51:15.874Z,95762.81
2023-04-21T03:53:42.484Z,95758.97
2023-04-21T03:56:09.833Z,95762.94
2023-04-21T03:58:36.986Z,95757.19
2023-04-21T04:01:07.674Z,95766.47
2023-04-21T04:03:34.968Z,95748.38
2023-04-21T04:06:04.243Z,95758.75
2023-04-21T04:08:31.414Z,95749.22
2023-04-21T04:10:58.248Z,95756.88
2023-04-21T04:13:26.516Z,95762.16
2023-04-21T04:15:53.757Z,95764.91
2023-04-21T04:18:21.404Z,95769.31
2023-04-21T04:20:48.239Z,95773.97
2023-04-21T04:23:14.929Z,95773.59
2023-04-21T04:25:42.792Z,95777.09
2023-04-21T04:28:09.633Z,95778.19
2023-04-21T04:30:37.135Z,95776.41
2023-04-21T04:33:03.913Z,95774.34
2023-04-21T04:35:30.768Z,95782.53
2023-04-21T04:37:58.042Z,95781.44
2023-04-21T04:40:25.593Z,95787.13
2023-04-21T04:42:52.752Z,95786.63
2023-04-21T04:45:21.420Z,95776.53
2023-04-21T04:47:49.009Z,95787.16
2023-04-21T04:50:15.806Z,95785.16
2023-04-21T04:52:44.902Z,95778.75
2023-04-21T04:55:11.743Z,95784.66
2023-04-21T04:57:38.519Z,95777.09
2023-04-21T05:00:11.419Z,95780.34
2023-04-21T05:02:39.074Z,95784.34
2023-04-21T05:05:07.430Z,95782.66
2023-04-21T05:07:34.817Z,95784.31
2023-04-21T05:10:02.602Z,95790.31
2023-04-21T05:12:29.308Z,95785.63
2023-04-21T05:14:56.224Z,95783.91
2023-04-21T05:17:22.933Z,95781.00
2023-04-21T05:19:49.592Z,95781.38
2023-04-21T05:22:16.272Z,95791.44
2023-04-21T05:24:44.086Z,95789.47
2023-04-21T05:27:10.737Z,95798.50
2023-04-21T05:29:37.391Z,95794.63
2023-04-21T05:32:04.288Z,95790.38
2023-04-21T05:34:30.964Z,95788.41
2023-04-21T05:36:57.646Z,95791.66
2023-04-21T05:39:24.346Z,95798.28
2023-04-21T05:41:50.999Z,95803.16
2023-04-21T05:44:18.312Z,95799.47
2023-04-21T05:46:45.308Z,95798.78
2023-04-21T05:49:11.928Z,95789.22
2023-04-21T05:51:38.592Z,95800.81
2023-04-21T05:54:05.428Z,95795.53
2023-04-21T05:56:32.291Z,95796.16
2023-04-21T05:58:58.994Z,95796.66
2023-04-21T06:01:25.726Z,95793.78
2023-04-21T06:03:52.569Z,95795.81
2023-04-21T06:06:19.431Z,95796.16
2023-04-21T06:08:46.158Z,95803.47
2023-04-21T06:11:12.923Z,95797.97
2023-04-21T06:13:41.624Z,95798.09
2023-04-21T06:16:09.751Z,95799.00
2023-04-21T06:18:36.434Z,95799.81
2023-04-21T06:21:03.266Z,95799.28
2023-04-21T06:23:30.024Z,95806.97
2023-04-21T06:26:01.554Z,95800.03
2023-04-21T06:28:28.308Z,95803.22
2023-04-21T06:30:55.080Z,95799.19
2023-04-21T06:33:21.752Z,95791.63
2023-04-21T06:35:48.382Z,95800.31
2023-04-21T06:38:15.188Z,95797.00
2023-04-21T06:40:41.888Z,95802.63
2023-04-21T06:43:08.679Z,95806.84
2023-04-21T06:45:35.277Z,95809.44
2023-04-21T06:48:02.062Z,95812.22
2023-04-21T06:50:28.773Z,95801.38
2023-04-21T06:52:55.674Z,95807.66
2023-04-21T06:55:22.450Z,95805.34
2023-04-21T06:57:49.140Z,95804.63
2023-04-21T07:00:18.159Z,95808.50
2023-04-21T07:02:45.581Z,95811.66
2023-04-21T07:05:12.311Z,95808.72
2023-04-21T07:07:39.016Z,95811.91
2023-04-21T07:10:06.227Z,95806.78
2023-04-21T07:12:32.970Z,95805.44
2023-04-21T07:14:59.701Z,95805.66
2023-04-21T07:17:26.469Z,95809.97
2023-04-21T07:19:53.229Z,95806.19
2023-04-21T07:22:21.199Z,95809.47
2023-04-21T07:24:49.515Z,95809.34
2023-04-21T07:27:19.223Z,95806.63
2023-04-21T07:29:45.988Z,95802.19
2023-04-21T07:32:12.709Z,95802.38
2023-04-21T07:34:39.364Z,95807.88
2023-04-21T07:37:06.137Z,95814.50
2023-04-21T07:39:32.816Z,95808.75
2023-04-21T07:41:59.464Z,95810.00
2023-04-21T07:44:26.803Z,95812.69
2023-04-21T07:46:53.561Z,95814.22
2023-04-21T07:49:20.515Z,95815.06
2023-04-21T07:51:47.480Z,95810.53
2023-04-21T07:54:14.195Z,95809.59
2023-04-21T07:56:40.830Z,95813.06
2023-04-21T07:59:07.547Z,95813.53
2023-04-21T08:01:34.433Z,95809.22
2023-04-21T08:04:01.417Z,95819.19
2023-04-21T08:06:29.000Z,95814.50
2023-04-21T08:08:56.097Z,95813.84
2023-04-21T08:11:22.823Z,95813.03
2023-04-21T08:13:49.903Z,95810.19
2023-04-21T08:16:16.615Z,95816.50
2023-04-21T08:18:43.390Z,95803.88
2023-04-21T08:21:10.077Z,95806.00
2023-04-21T08:23:36.729Z,95798.97
2023-04-21T08:26:03.701Z,95800.84
2023-04-21T08:28:30.392Z,95802.00
2023-04-21T08:30:57.100Z,95801.56
2023-04-21T08:33:23.834Z,95783.88
2023-04-21T08:36:02.466Z,95785.97
2023-04-21T08:38:33.713Z,95791.94
2023-04-21T08:41:01.259Z,95792.31
2023-04-21T08:43:29.309Z,95794.00
2023-04-21T08:45:57.142Z,95788.63
2023-04-21T08:48:26.341Z,95790.84
2023-04-21T08:50:53.928Z,95772.88
2023-04-21T08:53:20.979Z,95777.81
2023-04-21T08:56:03.135Z,95774.16
2023-04-21T08:58:36.612Z,95784.94
2023-04-21T09:01:03.719Z,95770.56
2023-04-21T09:03:31.408Z,95765.97
2023-04-21T09:06:00.132Z,95761.88
2023-04-21T09:08:29.894Z,95765.19
2023-04-21T09:10:57.754Z,95761.84
2023-04-21T09:13:35.904Z,95759.47
2023-04-21T09:16:07.946Z,95763.06
2023-04-21T09:18:40.212Z,95766.53
2023-04-21T09:21:12.824Z,95750.16
2023-04-21T09:23:51.205Z,95763.53
2023-04-21T09:26:20.000Z,95756.66
2023-04-21T09:28:48.741Z,95757.72
2023-04-21T09:31:25.286Z,95748.78
2023-04-21T09:33:58.372Z,95749.63
2023-04-21T09:36:28.121Z,95752.03
2023-04-21T09:39:15.390Z,95754.81
2023-04-21T09:41:41.821Z,95757.28
2023-04-21T09:44:08.580Z,95755.66
2023-04-21T09:46:37.162Z,95748.56
2023-04-21T09:49:05.774Z,95747.84
2023-04-21T09:54:28.309Z,95742.00
2023-04-21T09:56:59.631Z,95747.50
2023-04-21T09:59:35.985Z,95740.44
2023-04-21T10:02:07.372Z,95744.78
2023-04-21T10:04:37.541Z,95750.69
2023-04-21T10:07:05.561Z,95744.41
2023-04-21T10:09:41.841Z,95746.00
2023-04-21T10:12:10.430Z,95744.03
2023-04-21T10:14:37.170Z,95734.13
2023-04-21T10:17:06.188Z,95736.47
2023-04-21T10:19:41.788Z,95739.22
2023-04-21T10:22:12.320Z,95728.91
2023-04-21T10:24:39.997Z,95726.84
2023-04-21T10:27:11.643Z,95721.22
2023-04-21T10:29:52.663Z,95729.88
2023-04-21T10:32:41.461Z,95727.50
2023-04-21T10:35:13.585Z,95722.22
2023-04-21T10:37:42.446Z,95715.78
2023-04-21T10:43:47.206Z,95717.91
2023-04-21T10:46:39.605Z,95723.75
2023-04-21T10:49:09.974Z,95724.84
2023-04-21T10:51:59.901Z,95728.84
2023-04-21T10:54:28.276Z,95716.84
2023-04-21T10:56:56.026Z,95712.88
2023-04-21T10:59:24.025Z,95713.69
2023-04-21T11:01:50.778Z,95718.38
2023-04-21T11:04:19.045Z,95717.13
2023-04-21T11:07:12.283Z,95704.84
2023-04-21T11:09:41.557Z,95716.22
2023-04-21T11:12:13.064Z,95708.56
2023-04-21T11:14:42.118Z,95698.63
2023-04-21T11:17:13.493Z,95705.06
2023-04-21T11:19:40.552Z,95703.59
2023-04-21T11:22:07.616Z,95695.22
2023-04-21T11:24:34.559Z,95697.25
2023-04-21T11:27:02.153Z,95700.13
2023-04-21T11:29:31.697Z,95694.72
2023-04-21T11:31:59.251Z,95701.78
2023-04-21T11:34:27.052Z,95699.16
2023-04-21T11:36:54.123Z,95699.25
2023-04-21T11:39:22.185Z,95695.53
2023-04-21T11:41:50.929Z,95686.22
2023-04-21T11:44:37.205Z,95690.28
2023-04-21T11:47:18.144Z,95701.38
2023-04-21T11:49:50.605Z,95692.19
2023-04-21T11:52:34.356Z,95695.16
2023-04-21T11:55:02.558Z,95692.56
2023-04-21T11:57:30.062Z,95697.72
2023-04-21T12:00:01.321Z,95698.13
2023-04-21T12:02:30.455Z,95699.25
2023-04-21T12:05:02.589Z,95692.72
2023-04-21T12:07:31.365Z,95693.25
2023-04-21T12:09:59.005Z,95684.94
2023-04-21T12:12:26.872Z,95687.25
2023-04-21T12:14:53.934Z,95686.28
2023-04-21T12:17:21.239Z,95673.41
2023-04-21T12:19:48.286Z,95682.19
2023-04-21T12:22:18.745Z,95676.69
2023-04-21T12:24:46.026Z,95683.28
2023-04-21T12:27:14.203Z,95689.91
2023-04-21T12:29:41.442Z,95680.56
2023-04-21T12:32:09.909Z,95689.59
2023-04-21T12:34:37.129Z,95683.78
2023-04-21T12:37:04.455Z,95677.47
2023-04-21T12:39:31.649Z,95687.13
2023-04-21T12:41:58.911Z,95679.28
2023-04-21T12:44:26.096Z,95677.00
2023-04-21T12:46:53.206Z,95674.31
2023-04-21T12:49:20.431Z,95680.00
2023-04-21T12:51:49.306Z,95678.31
2023-04-21T12:54:16.159Z,95679.00
2023-04-21T12:56:43.718Z,95675.28
2023-04-21T12:59:11.245Z,95668.63
2023-04-21T13:01:39.247Z,95673.78
2023-04-21T13:04:06.470Z,95663.03
2023-04-21T13:06:33.959Z,95682.19
2023-04-21T13:09:00.871Z,95674.28
2023-04-21T13:11:27.926Z,95669.94
2023-04-21T13:13:54.640Z,95660.25
2023-04-21T13:16:21.370Z,95653.75
2023-04-21T13:18:48.209Z,95662.47
2023-04-21T13:21:15.060Z,95666.13
2023-04-21T13:23:41.756Z,95657.34
2023-04-21T13:26:09.323Z,95669.09
2023-04-21T13:28:38.707Z,95650.78
2023-04-21T13:31:06.867Z,95655.91
2023-04-21T13:33:35.216Z,95650.63
2023-04-21T13:36:03.190Z,95647.78
2023-04-21T13:38:30.109Z,95644.91
2023-04-21T13:40:57.079Z,95644.75
2023-04-21T13:43:23.844Z,95645.72
2023-04-21T13:45:52.256Z,95635.16
2023-04-21T13:48:22.202Z,95646.94
2023-04-21T13:50:49.062Z,95628.41
2023-04-21T13:53:21.127Z,95638.72
2023-04-21T13:55:48.453Z,95625.88
2023-04-21T13:58:16.870Z,95627.66
2023-04-21T14:00:44.064Z,95626.53
2023-04-21T14:03:11.639Z,95624.59
2023-04-21T14:05:39.170Z,95633.56
2023-04-21T14:08:06.210Z,95616.06
2023-04-21T14:10:33.214Z,95623.97
2023-04-21T14:12:59.949Z,95625.28
2023-04-21T14:15:27.131Z,95623.88
2023-04-21T14:17:54.207Z,95621.38
2023-04-21T14:20:21.177Z,95614.06
2023-04-21T14:22:48.140Z,95620.19
2023-04-21T14:25:15.129Z,95603.63
2023-04-21T14:27:42.034Z,95610.53
2023-04-21T14:30:10.560Z,95601.75
2023-04-21T14:32:37.693Z,95601.81
2023-04-21T14:35:05.623Z,95602.13
2023-04-21T14:37:33.306Z,95602.50
2023-04-21T14:40:00.143Z,95593.81
2023-04-21T14:42:26.913Z,95581.13
2023-04-21T14:44:53.747Z,95587.06
2023-04-21T14:47:21.464Z,95584.19
2023-04-21T14:49:49.989Z,95585.38
2023-04-21T14:52:16.667Z,95584.44
2023-04-21T14:54:43.478Z,95578.88
2023-04-21T14:57:19.136Z,95579.63
2023-04-21T14:59:50.672Z,95570.09
2023-04-21T15:02:17.776Z,95573.69
2023-04-21T15:04:45.203Z,95578.44
2023-04-21T15:07:12.325Z,95582.03
2023-04-21T15:09:45.694Z,95570.22
2023-04-21T15:12:15.901Z,95580.38
2023-04-21T15:14:42.754Z,95592.72
2023-04-21T15:17:09.597Z,95572.13
2023-04-21T15:19:36.621Z,95582.84
2023-04-21T15:22:04.931Z,95573.56
2023-04-21T15:24:31.702Z,95571.72
2023-04-21T15:26:58.406Z,95578.84
2023-04-21T15:29:25.387Z,95572.59
2023-04-21T15:31:52.043Z,95580.97
2023-04-21T15:34:18.691Z,95581.38
2023-04-21T15:36:45.351Z,95583.28
2023-04-21T15:39:14.169Z,95584.16
2023-04-21T15:41:41.134Z,95577.06
2023-04-21T15:44:07.940Z,95577.28
2023-04-21T15:46:34.790Z,95575.44
2023-04-21T15:49:01.740Z,95573.97
2023-04-21T15:51:28.525Z,95574.78
2023-04-21T15:53:55.211Z,95582.31
2023-04-21T15:56:21.999Z,95571.19
2023-04-21T15:58:48.758Z,95572.41
2023-04-21T16:01:15.678Z,95576.81
2023-04-21T16:03:42.807Z,95573.41
2023-04-21T16:06:09.712Z,95586.28
2023-04-21T16:08:36.599Z,95574.84
2023-04-21T16:11:03.572Z,95570.06
2023-04-21T16:13:30.256Z,95567.72
2023-04-21T16:15:57.175Z,95573.34
2023-04-21T16:18:24.013Z,95571.09
2023-04-21T16:20:50.915Z,95569.13
2023-04-21T16:23:17.667Z,95572.75
2023-04-21T16:25:44.711Z,95569.59
2023-04-21T16:28:11.708Z,95574.41
2023-04-21T16:30:43.286Z,95568.50
2023-04-21T16:33:14.648Z,95567.44
2023-04-21T16:35:41.692Z,95565.84
2023-04-21T16:38:08.517Z,95575.53
2023-04-21T16:40:35.448Z,95571.97
2023-04-21T16:43:02.313Z,95573.13
2023-04-21T16:45:29.609Z,95566.09
2023-04-21T16:47:57.521Z,95570.44
2023-04-21T16:50:24.509Z,95563.78
2023-04-21T16:52:51.352Z,95567.78
2023-04-21T16:55:18.471Z,95567.06
2023-04-21T16:57:45.383Z,95574.22
2023-04-21T17:00:14.251Z,95571.91
2023-04-21T17:02:41.213Z,95571.59
2023-04-21T17:05:08.597Z,95569.66
2023-04-21T17:07:35.403Z,95580.00
2023-04-21T17:10:02.113Z,95577.66
2023-04-21T17:12:28.799Z,95567.81
2023-04-21T17:14:55.454Z,95573.81
2023-04-21T17:17:22.272Z,95578.16
2023-04-21T17:19:48.983Z,95577.06
2023-04-21T17:22:15.796Z,95579.41
2023-04-21T17:24:52.361Z,95581.44
2023-04-21T17:27:20.925Z,95581.91
2023-04-21T17:29:47.807Z,95587.44
2023-04-21T17:32:14.748Z,95586.75
2023-04-21T17:34:41.418Z,95590.34
2023-04-21T17:37:08.239Z,95584.47
2023-04-21T17:39:34.926Z,95586.47
2023-04-21T17:42:02.603Z,95591.63
2023-04-21T17:44:29.716Z,95582.91
2023-04-21T17:46:58.227Z,95588.06
2023-04-21T17:49:25.491Z,95586.06
2023-04-21T17:51:53.097Z,95590.47
2023-04-21T17:54:19.887Z,95590.09
2023-04-21T17:56:46.977Z,95587.72
2023-04-21T17:59:14.097Z,95588.16
2023-04-21T18:01:40.823Z,95592.53
2023-04-21T18:04:08.341Z,95589.78
2023-04-21T18:06:36.054Z,95597.31
2023-04-21T18:09:04.536Z,95585.81
2023-04-21T18:11:31.327Z,95593.31
2023-04-21T18:13:58.205Z,95600.47
2023-04-21T18:16:25.689Z,95600.44
2023-04-21T18:18:52.525Z,95595.31
2023-04-21T18:21:19.365Z,95596.88
2023-04-21T18:23:46.641Z,95603.19
2023-04-21T18:26:13.368Z,95612.66
2023-04-21T18:28:40.000Z,95609.91
2023-04-21T18:31:06.908Z,95616.59
2023-04-21T18:33:33.772Z,95620.16
2023-04-21T18:36:00.585Z,95615.72
2023-04-21T18:38:27.354Z,95626.34
2023-04-21T18:40:54.081Z,95624.66
2023-04-21T18:43:21.249Z,95625.28
2023-04-21T18:45:47.931Z,95631.69
2023-04-21T18:48:14.585Z,95631.28
2023-04-21T18:50:41.499Z,95633.13
2023-04-21T18:53:08.914Z,95634.66
2023-04-21T18:55:37.394Z,95641.94
2023-04-21T18:58:04.272Z,95639.81
2023-04-21T19:00:32.176Z,95636.22
2023-04-21T19:03:03.778Z,95634.91
2023-04-21T19:05:31.869Z,95641.44
2023-04-21T19:07:58.970Z,95646.97
2023-04-21T19:10:26.660Z,95642.91
2023-04-21T19:12:53.861Z,95645.81
2023-04-21T19:15:22.309Z,95639.31
2023-04-21T19:17:48.897Z,95640.06
2023-04-21T19:20:15.947Z,95643.19
2023-04-21T19:22:42.622Z,95638.00
2023-04-21T19:25:09.907Z,95639.25
2023-04-21T19:27:36.939Z,95640.06
2023-04-21T19:30:05.051Z,95633.00
2023-04-21T19:32:31.908Z,95637.69
2023-04-21T19:34:58.688Z,95641.44
2023-04-21T19:37:26.484Z,95651.78
2023-04-21T19:39:53.341Z,95660.19
2023-04-21T19:42:20.179Z,95647.44
2023-04-21T19:44:46.931Z,95652.38
2023-04-21T19:47:13.773Z,95647.63
2023-04-21T19:49:40.659Z,95639.06
2023-04-21T19:52:07.350Z,95641.88
2023-04-21T19:54:34.028Z,95644.13
2023-04-21T19:57:01.712Z,95644.78
2023-04-21T19:59:28.637Z,95638.41
2023-04-21T20:01:55.595Z,95639.13
2023-04-21T20:04:22.625Z,95634.81
2023-04-21T20:06:49.440Z,95636.56
2023-04-21T20:09:16.130Z,95646.63
2023-04-21T20:11:43.280Z,95646.34
2023-04-21T20:14:09.960Z,95647.13
2023-04-21T20:16:38.145Z,95641.78
2023-04-21T20:19:04.953Z,95652.75
2023-04-21T20:21:33.357Z,95647.56
2023-04-21T20:23:59.872Z,95654.81
2023-04-21T20:26:26.623Z,95655.25
2023-04-21T20:28:53.339Z,95655.19
2023-04-21T20:31:23.665Z,95663.34
2023-04-21T20:33:50.961Z,95658.44
2023-04-21T20:36:18.532Z,95667.38
2023-04-21T20:38:46.595Z,95671.06
2023-04-21T20:41:13.605Z,95666.66
2023-04-21T20:43:40.450Z,95666.56
2023-04-21T20:46:08.950Z,95679.09
2023-04-21T20:48:35.520Z,95664.41
2023-04-21T20:51:02.803Z,95678.28
2023-04-21T20:53:29.622Z,95673.47
2023-04-21T20:55:56.383Z,95686.31
2023-04-21T20:58:24.600Z,95682.41
2023-04-21T21:00:51.501Z,95691.28
2023-04-21T21:03:20.452Z,95686.84
2023-04-21T21:05:47.880Z,95691.03
2023-04-21T21:08:15.253Z,95686.88
2023-04-21T21:10:42.381Z,95690.16
2023-04-21T21:13:09.208Z,95690.94
2023-04-21T21:15:36.224Z,95689.19
2023-04-21T21:18:03.443Z,95695.09
2023-04-21T21:20:30.593Z,95686.63
2023-04-21T21:22:57.535Z,95690.50
2023-04-21T21:25:24.410Z,95689.34
2023-04-21T21:27:51.088Z,95692.97
2023-04-21T21:30:17.882Z,95696.75
2023-04-21T21:32:44.998Z,95698.34
2023-04-21T21:35:12.113Z,95694.88
2023-04-21T21:37:39.218Z,95698.47
2023-04-21T21:40:07.394Z,95701.22
2023-04-21T21:42:34.168Z,95696.03
2023-04-21T21:45:01.429Z,95697.59
2023-04-21T21:47:28.498Z,95708.09
2023-04-21T21:49:56.082Z,95704.97
2023-04-21T21:52:22.872Z,95711.00
2023-04-21T21:54:49.506Z,95707.31
2023-04-21T21:57:17.036Z,95706.31
2023-04-21T21:59:44.284Z,95715.84
2023-04-21T22:02:11.106Z,95708.91
2023-04-21T22:04:38.089Z,95714.47
2023-04-21T22:07:05.270Z,95714.56
2023-04-21T22:09:32.628Z,95714.47
2023-04-21T22:11:59.366Z,95710.59
2023-04-21T22:14:26.163Z,95704.78
2023-04-21T22:16:53.360Z,95712.06
2023-04-21T22:19:20.740Z,95712.72
2023-04-21T22:21:47.779Z,95713.16
2023-04-21T22:24:14.935Z,95710.53
2023-04-21T22:26:42.018Z,95708.25
2023-04-21T22:29:08.709Z,95707.47
2023-04-21T22:31:35.566Z,95720.53
2023-04-21T22:34:02.489Z,95716.50
2023-04-21T22:36:29.150Z,95714.66
2023-04-21T22:38:56.074Z,95716.25
2023-04-21T22:41:23.232Z,95720.84
2023-04-21T22:43:49.934Z,95725.59
2023-04-21T22:46:16.830Z,95722.31
2023-04-21T22:48:46.632Z,95724.56
2023-04-21T22:51:18.671Z,95724.56
2023-04-21T22:53:45.390Z,95729.91
2023-04-21T22:56:12.331Z,95728.78
2023-04-21T22:58:39.048Z,95731.41
2023-04-21T23:01:05.931Z,95732.66
2023-04-21T23:03:32.727Z,95731.16
2023-04-21T23:05:59.638Z,95734.69
2023-04-21T23:08:26.365Z,95730.72
2023-04-21T23:10:53.072Z,95736.06
2023-04-21T23:13:19.799Z,95732.44
2023-04-21T23:15:46.635Z,95746.09
2023-04-21T23:18:13.459Z,95736.75
2023-04-21T23:20:40.284Z,95730.94
2023-04-21T23:23:06.955Z,95738.00
2023-04-21T23:25:33.881Z,95743.00
2023-04-21T23:28:00.768Z,95738.09
2023-04-21T23:30:27.543Z,95745.56
2023-04-21T23:32:54.438Z,95743.06
2023-04-21T23:35:21.310Z,95743.41
2023-04-21T23:37:48.762Z,95739.00
2023-04-21T23:40:15.507Z,95740.38
2023-04-21T23:42:42.161Z,95745.38
2023-04-21T23:45:14.343Z,95735.59
2023-04-21T23:47:41.207Z,95740.47
2023-04-21T23:50:08.233Z,95735.06
2023-04-21T23:52:35.021Z,95736.50
2023-04-21T23:55:01.786Z,95738.13
2023-04-21T23:57:28.601Z,95740.75
2023-04-21T23:59:55.353Z,95736.53
